Archival Weather

Ahwaz

Ahwaz, Iran (OIAW)

Report from: Sunday, October 1, 2023 11:00 PM +0330
Current time: Friday, July 19, 2024 6:36 AM +0330

Current weather – Weather history – Daily summaries
Weather forecast

Temperature31.0°C (87.8°F)
Heat index29.2°C (84.5°F)
Dew point7.0°C (44.6°F)
Winds 4 kts (2.1 m/s, 4.6 mph) Northwest (310°)
Clouds Sky clear
Altimeter29.77 in.Hg (1008 mB)
Relative humidity22 %
Density altitude2,153 ft. (656 m)
Remarks Ceiling and visibility OK
Flight conditions Visual Meteorological Conditions
Raw dataOIAW 011930Z 31004KT CAVOK 31/07 Q1008
An error has occurred. This application may no longer respond until reloaded. Reload 🗙